Time;durP1;ratioP1;P1;durP2;ratioP2;P2;SDS_P1;SDS_P2;PMS_P1;PMS_P2;Temp;Humidity;BMP_temperature;BMP_pressure;BME280_temperature;BME280_humidity;BME280_pressure;Samples;Min_cycle;Max_cycle;Signal;HPM_P1;HPM_P2
2021/06/28 00:00:42;;;;;;;20.30;19.10;;;17.40;99.90;;;;;;5120053;28;20471;-74
2021/06/28 00:03:09;;;;;;;20.83;19.53;;;17.40;99.90;;;;;;5116752;28;20480;-71
2021/06/28 00:05:37;;;;;;;20.63;19.33;;;17.40;99.90;;;;;;5118299;28;20466;-73
2021/06/28 00:08:04;;;;;;;20.83;19.53;;;17.30;99.90;;;;;;5114363;28;20465;-73
2021/06/28 00:10:32;;;;;;;21.17;19.87;;;17.20;99.90;;;;;;5122695;28;20457;-71
2021/06/28 00:13:00;;;;;;;21.20;19.90;;;17.10;99.90;;;;;;5118055;28;20863;-73
2021/06/28 00:15:31;;;;;;;20.93;19.63;;;17.00;99.90;;;;;;5121618;28;20818;-70
2021/06/28 00:18:00;;;;;;;20.17;18.93;;;17.00;99.90;;;;;;5117392;28;20457;-71
2021/06/28 00:20:27;;;;;;;20.80;19.50;;;17.00;99.90;;;;;;5119747;28;20551;-71
2021/06/28 00:22:54;;;;;;;20.93;19.63;;;16.90;99.90;;;;;;5119606;28;20841;-71
2021/06/28 00:25:22;;;;;;;21.03;19.73;;;16.90;99.90;;;;;;5117499;28;20457;-71
2021/06/28 00:27:49;;;;;;;20.60;19.30;;;16.90;99.90;;;;;;5117035;28;20453;-73
2021/06/28 00:30:20;;;;;;;20.63;19.33;;;16.90;99.90;;;;;;5122459;28;20466;-72
2021/06/28 00:32:48;;;;;;;20.50;19.20;;;16.80;99.90;;;;;;5122159;28;20472;-71
2021/06/28 00:35:18;;;;;;;20.33;19.13;;;16.80;99.90;;;;;;5115445;28;20464;-71
2021/06/28 00:37:46;;;;;;;21.37;20.07;;;16.80;99.90;;;;;;5116616;28;20592;-71
2021/06/28 00:40:15;;;;;;;19.83;18.63;;;16.80;99.90;;;;;;5121445;28;20456;-73
2021/06/28 00:42:41;;;;;;;21.30;20.00;;;16.80;99.90;;;;;;5119534;28;20455;-74
2021/06/28 00:45:23;;;;;;;20.93;19.63;;;16.80;99.90;;;;;;5120125;28;20815;-71
2021/06/28 00:47:52;;;;;;;20.90;19.60;;;16.80;99.90;;;;;;5113190;28;20843;-71
2021/06/28 00:50:21;;;;;;;20.90;19.60;;;16.70;99.90;;;;;;5118912;28;20456;-72
2021/06/28 00:52:53;;;;;;;20.10;18.90;;;16.70;99.90;;;;;;5115646;28;20494;-71
2021/06/28 00:55:20;;;;;;;22.80;21.40;;;16.60;99.90;;;;;;5119374;27;20484;-74
2021/06/28 00:57:47;;;;;;;20.93;19.63;;;16.50;99.90;;;;;;5120445;27;21009;-72
2021/06/28 01:00:15;;;;;;;21.60;20.20;;;16.50;99.90;;;;;;5115404;28;20464;-74
2021/06/28 01:02:43;;;;;;;21.67;20.27;;;16.50;99.90;;;;;;5113276;28;20471;-71
2021/06/28 01:05:12;;;;;;;20.87;19.57;;;16.40;99.90;;;;;;5115378;27;21002;-71
2021/06/28 01:07:40;;;;;;;21.20;19.90;;;16.40;99.90;;;;;;5118073;27;20462;-71
2021/06/28 01:10:11;;;;;;;20.83;19.53;;;16.40;99.90;;;;;;5120646;27;20461;-71
2021/06/28 01:12:39;;;;;;;20.30;19.10;;;16.40;99.90;;;;;;5124331;27;20671;-71
2021/06/28 01:15:08;;;;;;;21.63;20.30;;;16.40;99.90;;;;;;5116322;27;20457;-71
2021/06/28 01:17:36;;;;;;;20.23;19.03;;;16.50;99.90;;;;;;5124512;27;20522;-70
2021/06/28 01:20:06;;;;;;;20.90;19.60;;;16.50;99.90;;;;;;5118834;27;20461;-71
2021/06/28 01:22:34;;;;;;;20.97;19.67;;;16.50;99.90;;;;;;5117968;27;20482;-72
2021/06/28 01:25:05;;;;;;;20.20;19.00;;;16.50;99.90;;;;;;5118840;27;20552;-71
2021/06/28 01:27:32;;;;;;;20.70;19.40;;;16.60;99.90;;;;;;5122968;27;20460;-73
2021/06/28 01:29:59;;;;;;;20.63;19.33;;;16.60;99.90;;;;;;5115802;27;20456;-73
2021/06/28 01:32:27;;;;;;;20.13;18.93;;;16.70;99.90;;;;;;5126777;27;20448;-70
2021/06/28 01:34:54;;;;;;;20.60;19.30;;;16.60;99.90;;;;;;5118125;27;20492;-70
2021/06/28 01:37:23;;;;;;;20.67;19.37;;;16.50;99.90;;;;;;5123858;27;20499;-73
2021/06/28 01:39:54;;;;;;;20.37;19.17;;;16.50;99.90;;;;;;5121321;27;20479;-70
2021/06/28 01:42:23;;;;;;;19.73;18.53;;;16.60;99.90;;;;;;5120196;27;20544;-71
2021/06/28 01:44:50;;;;;;;20.17;18.97;;;16.70;99.90;;;;;;5123391;27;20464;-74
2021/06/28 01:47:18;;;;;;;20.20;19.00;;;16.70;99.90;;;;;;5122086;27;20458;-71
2021/06/28 01:49:46;;;;;;;20.20;19.00;;;16.80;99.90;;;;;;5122674;27;20467;-71
2021/06/28 01:52:14;;;;;;;19.37;18.27;;;16.90;99.90;;;;;;5119010;27;20453;-71
2021/06/28 01:54:42;;;;;;;19.13;18.03;;;17.00;99.90;;;;;;5121464;27;20588;-71
2021/06/28 01:57:10;;;;;;;19.17;18.07;;;17.10;99.90;;;;;;5123043;27;20487;-71
2021/06/28 01:59:39;;;;;;;19.40;18.30;;;17.10;99.90;;;;;;5115715;27;20879;-71
2021/06/28 02:02:07;;;;;;;19.83;18.63;;;17.00;99.90;;;;;;5124882;27;20461;-70
2021/06/28 02:04:35;;;;;;;19.40;18.30;;;17.00;99.90;;;;;;5119612;27;20976;-71
2021/06/28 02:07:06;;;;;;;22.60;21.30;;;17.10;99.90;;;;;;5120519;27;20539;-71
2021/06/28 02:09:33;;;;;;;20.47;19.20;;;17.10;99.90;;;;;;5116335;27;20461;-71
2021/06/28 02:12:00;;;;;;;20.60;19.40;;;17.20;99.90;;;;;;5125644;27;20465;-69
2021/06/28 02:14:27;;;;;;;20.70;19.50;;;17.10;99.90;;;;;;5123028;27;21061;-71
2021/06/28 02:16:55;;;;;;;20.47;19.27;;;17.00;99.90;;;;;;5118934;27;20462;-73
2021/06/28 02:19:25;;;;;;;19.83;18.63;;;17.00;99.90;;;;;;5119413;27;21120;-71
2021/06/28 02:21:52;;;;;;;20.43;19.23;;;17.00;99.90;;;;;;5118231;27;20874;-74
2021/06/28 02:24:19;;;;;;;20.70;19.50;;;16.90;99.90;;;;;;5124320;27;20461;-71
2021/06/28 02:26:47;;;;;;;20.60;19.40;;;16.80;99.90;;;;;;5119780;27;20460;-72
2021/06/28 02:29:14;;;;;;;20.37;19.17;;;16.70;99.90;;;;;;5118740;27;20697;-74
2021/06/28 02:31:42;;;;;;;21.77;20.47;;;16.70;99.90;;;;;;5122436;27;20465;-70
2021/06/28 02:34:11;;;;;;;20.50;19.30;;;16.60;99.90;;;;;;5118287;27;20479;-70
2021/06/28 02:36:38;;;;;;;20.50;19.30;;;16.60;99.90;;;;;;5124438;27;20452;-71
2021/06/28 02:39:07;;;;;;;20.23;19.03;;;16.60;99.90;;;;;;5118802;27;20464;-71
2021/06/28 02:41:35;;;;;;;19.60;18.40;;;16.60;99.90;;;;;;5118427;27;20543;-70
2021/06/28 02:44:04;;;;;;;20.50;19.30;;;16.60;99.90;;;;;;5118324;27;20457;-72
2021/06/28 02:46:30;;;;;;;20.30;19.10;;;16.50;99.90;;;;;;5121224;27;20467;-71
2021/06/28 02:48:57;;;;;;;21.43;20.03;;;16.50;99.90;;;;;;5120285;27;20456;-71
2021/06/28 02:51:26;;;;;;;20.17;18.97;;;16.50;99.90;;;;;;5120551;27;20460;-71
2021/06/28 02:53:53;;;;;;;20.07;18.87;;;16.50;99.90;;;;;;5122379;27;20812;-73
2021/06/28 02:56:22;;;;;;;19.83;18.63;;;16.40;99.90;;;;;;5117478;27;20480;-74
2021/06/28 02:58:50;;;;;;;20.17;18.97;;;16.40;99.90;;;;;;5118838;27;20491;-71
2021/06/28 03:01:19;;;;;;;20.73;19.43;;;16.30;99.90;;;;;;5118032;27;20551;-73
2021/06/28 03:03:47;;;;;;;19.77;18.57;;;16.30;99.90;;;;;;5121786;27;20456;-74
2021/06/28 03:06:16;;;;;;;20.23;19.03;;;16.20;99.90;;;;;;5122940;27;20469;-72
2021/06/28 03:08:46;;;;;;;20.67;19.47;;;16.20;99.90;;;;;;5114499;27;20457;-72
2021/06/28 03:11:14;;;;;;;19.60;18.40;;;16.20;99.90;;;;;;5125368;27;21025;-71
2021/06/28 03:13:41;;;;;;;19.77;18.57;;;16.20;99.90;;;;;;5120553;27;20491;-74
2021/06/28 03:16:09;;;;;;;19.80;18.60;;;16.20;99.90;;;;;;5117352;27;20457;-71
2021/06/28 03:18:36;;;;;;;20.10;18.90;;;16.10;99.90;;;;;;5113448;27;20818;-71
2021/06/28 03:21:07;;;;;;;20.10;18.90;;;16.10;99.90;;;;;;5115563;27;20463;-71
2021/06/28 03:23:35;;;;;;;20.47;19.27;;;16.10;99.90;;;;;;5121020;27;20483;-72
2021/06/28 03:26:03;;;;;;;19.80;18.60;;;16.00;99.90;;;;;;5117106;27;20474;-72
2021/06/28 03:28:29;;;;;;;20.20;19.00;;;16.00;99.90;;;;;;5117071;27;20459;-71
2021/06/28 03:30:57;;;;;;;19.37;18.27;;;16.10;99.90;;;;;;5116945;27;20959;-72
2021/06/28 03:33:24;;;;;;;19.00;17.90;;;16.20;99.90;;;;;;5114229;27;20452;-71
2021/06/28 03:35:51;;;;;;;19.23;18.13;;;16.10;99.90;;;;;;5118814;27;20796;-71
2021/06/28 03:38:18;;;;;;;21.00;19.50;;;16.10;99.90;;;;;;5120238;27;20924;-71
2021/06/28 03:40:46;;;;;;;19.73;18.53;;;16.00;99.90;;;;;;5122589;27;20444;-71
2021/06/28 03:43:14;;;;;;;19.60;18.40;;;16.10;99.90;;;;;;5113938;27;20468;-73
2021/06/28 03:45:42;;;;;;;19.93;18.73;;;16.10;99.90;;;;;;5118193;27;20517;-74
2021/06/28 03:48:12;;;;;;;19.70;18.50;;;16.10;99.90;;;;;;5115565;27;20456;-73
2021/06/28 03:50:40;;;;;;;19.80;18.60;;;16.10;99.90;;;;;;5113992;27;20855;-71
2021/06/28 03:53:07;;;;;;;19.33;18.23;;;16.10;99.90;;;;;;5126834;27;20981;-71
2021/06/28 03:55:34;;;;;;;19.27;18.17;;;16.20;99.90;;;;;;5125574;27;20483;-74
2021/06/28 03:58:01;;;;;;;19.53;18.33;;;16.20;99.90;;;;;;5119683;27;20464;-71
2021/06/28 04:00:30;;;;;;;19.17;18.07;;;16.20;99.90;;;;;;5119137;28;20454;-71
2021/06/28 04:02:59;;;;;;;19.40;18.30;;;16.30;99.90;;;;;;5115230;28;20987;-71
2021/06/28 04:05:26;;;;;;;19.20;18.10;;;16.30;99.90;;;;;;5115391;28;20955;-71
2021/06/28 04:07:54;;;;;;;19.43;18.23;;;16.30;99.90;;;;;;5120558;28;20492;-73
2021/06/28 04:10:22;;;;;;;19.50;18.30;;;16.30;99.90;;;;;;5116660;28;20464;-71
2021/06/28 04:12:50;;;;;;;19.50;18.30;;;16.30;99.90;;;;;;5113370;28;20479;-71
2021/06/28 04:15:18;;;;;;;19.33;18.17;;;16.40;99.90;;;;;;5116544;28;20484;-71
2021/06/28 04:17:50;;;;;;;19.83;18.63;;;16.40;99.90;;;;;;5117349;28;20874;-74
2021/06/28 04:20:18;;;;;;;19.93;18.70;;;16.50;99.90;;;;;;5121115;28;20461;-71
2021/06/28 04:22:45;;;;;;;19.77;18.57;;;16.50;99.90;;;;;;5111017;28;20485;-71
2021/06/28 04:25:15;;;;;;;19.50;18.30;;;16.60;99.90;;;;;;5118610;28;20463;-74
2021/06/28 04:27:43;;;;;;;20.20;19.00;;;16.60;99.90;;;;;;5117893;28;20461;-70
2021/06/28 04:30:11;;;;;;;19.67;18.47;;;16.70;99.90;;;;;;5121521;28;20493;-71
2021/06/28 04:32:39;;;;;;;20.03;18.50;;;16.80;99.90;;;;;;5121272;28;20458;-71
2021/06/28 04:35:10;;;;;;;19.70;18.50;;;16.90;99.90;;;;;;5113755;28;20505;-71
2021/06/28 04:37:37;;;;;;;18.57;17.47;;;17.10;99.90;;;;;;5114500;28;20461;-71
2021/06/28 04:40:05;;;;;;;20.20;19.00;;;17.30;99.90;;;;;;5118392;27;21049;-71
2021/06/28 04:42:31;;;;;;;19.20;18.10;;;17.50;99.90;;;;;;5123699;27;20675;-71
2021/06/28 04:44:59;;;;;;;18.73;17.63;;;17.70;99.90;;;;;;5124660;27;20465;-72
2021/06/28 04:47:25;;;;;;;20.63;19.33;;;17.80;99.90;;;;;;5127441;27;20772;-70
2021/06/28 04:49:52;;;;;;;18.60;17.50;;;17.90;99.90;;;;;;5121447;27;20487;-71
2021/06/28 04:52:20;;;;;;;18.50;17.40;;;18.00;99.90;;;;;;5118491;27;20518;-71
2021/06/28 04:54:47;;;;;;;18.27;17.17;;;18.10;99.90;;;;;;5121763;27;20492;-71
2021/06/28 04:57:16;;;;;;;18.70;17.60;;;18.10;99.90;;;;;;5125064;27;20456;-71
2021/06/28 04:59:43;;;;;;;24.60;20.30;;;18.20;99.90;;;;;;5115947;27;20535;-71
2021/06/28 05:02:10;;;;;;;19.17;18.07;;;18.30;99.90;;;;;;5127039;27;20495;-71
2021/06/28 05:04:37;;;;;;;18.70;17.60;;;18.40;99.90;;;;;;5123275;27;20494;-71
2021/06/28 05:07:05;;;;;;;19.00;17.90;;;18.40;99.90;;;;;;5123071;27;20457;-71
2021/06/28 05:09:33;;;;;;;18.03;17.03;;;18.50;99.90;;;;;;5118488;27;20525;-71
2021/06/28 05:12:00;;;;;;;18.20;17.20;;;18.50;99.90;;;;;;5117100;27;20456;-71
2021/06/28 05:14:27;;;;;;;18.30;17.30;;;18.60;99.90;;;;;;5121272;27;20995;-72
2021/06/28 05:16:54;;;;;;;18.90;17.90;;;18.70;99.90;;;;;;5113826;27;20548;-71
2021/06/28 05:19:21;;;;;;;18.73;17.70;;;18.80;99.90;;;;;;5123554;27;20484;-70
2021/06/28 05:21:48;;;;;;;18.87;17.87;;;18.90;99.90;;;;;;5119889;27;20453;-71
2021/06/28 05:24:15;;;;;;;19.07;18.07;;;19.00;99.90;;;;;;5119889;27;20479;-72
2021/06/28 05:26:44;;;;;;;18.80;17.80;;;19.10;99.90;;;;;;5119939;27;20486;-71
2021/06/28 05:29:11;;;;;;;18.90;17.90;;;19.10;99.90;;;;;;5119315;27;20518;-71
2021/06/28 05:31:38;;;;;;;17.90;17.00;;;19.10;99.90;;;;;;5117636;27;20568;-71
2021/06/28 05:34:05;;;;;;;18.67;17.63;;;19.20;99.90;;;;;;5122245;27;20502;-71
2021/06/28 05:36:33;;;;;;;39.53;35.60;;;19.20;99.90;;;;;;5126254;27;20702;-71
2021/06/28 05:39:00;;;;;;;39.67;35.60;;;19.40;99.90;;;;;;5120811;27;20455;-73
2021/06/28 05:41:26;;;;;;;40.37;36.00;;;19.50;99.90;;;;;;5119503;27;20551;-71
2021/06/28 05:43:55;;;;;;;41.60;37.23;;;19.60;99.90;;;;;;5117092;27;20456;-72
2021/06/28 05:46:22;;;;;;;38.83;34.63;;;19.70;99.90;;;;;;5120591;27;20902;-73
2021/06/28 05:48:49;;;;;;;38.80;34.73;;;19.80;99.90;;;;;;5116416;27;20624;-74
2021/06/28 05:51:17;;;;;;;46.13;36.50;;;19.80;99.90;;;;;;5116282;27;20787;-71
2021/06/28 05:53:44;;;;;;;38.70;34.70;;;19.90;99.90;;;;;;5117032;27;20798;-71
2021/06/28 05:56:11;;;;;;;35.70;32.40;;;19.90;99.90;;;;;;5111367;27;20888;-71
2021/06/28 05:58:38;;;;;;;37.37;33.57;;;20.10;99.90;;;;;;5114834;27;20453;-71
2021/06/28 06:01:07;;;;;;;39.73;32.63;;;20.20;99.90;;;;;;5112744;27;20924;-72
2021/06/28 06:03:34;;;;;;;39.73;33.20;;;20.50;99.90;;;;;;5112718;27;20464;-72
2021/06/28 06:06:01;;;;;;;34.43;30.87;;;20.70;99.90;;;;;;5109085;27;20457;-71
2021/06/28 06:08:28;;;;;;;32.80;29.63;;;20.90;99.90;;;;;;5116639;27;20923;-71
2021/06/28 06:11:00;;;;;;;32.80;29.60;;;21.00;99.90;;;;;;5114876;27;20979;-72
2021/06/28 06:13:28;;;;;;;36.23;32.07;;;21.10;99.90;;;;;;5117001;27;20466;-71
2021/06/28 06:15:58;;;;;;;34.63;29.80;;;21.20;99.90;;;;;;5116664;27;20492;-71
2021/06/28 06:18:26;;;;;;;31.53;28.73;;;21.40;99.90;;;;;;5115460;27;20977;-71
2021/06/28 06:20:54;;;;;;;34.60;30.93;;;21.60;99.90;;;;;;5115448;27;20467;-72
2021/06/28 06:23:21;;;;;;;31.23;28.53;;;21.70;99.90;;;;;;5113254;27;20725;-70
2021/06/28 06:25:48;;;;;;;34.20;30.90;;;21.80;99.90;;;;;;5114440;27;20461;-71
2021/06/28 06:28:15;;;;;;;33.37;30.37;;;21.90;99.90;;;;;;5116921;27;20483;-71
2021/06/28 06:30:42;;;;;;;32.73;29.70;;;22.00;99.90;;;;;;5115906;27;20465;-71
2021/06/28 06:33:10;;;;;;;30.93;28.50;;;22.10;99.90;;;;;;5114362;27;20816;-71
2021/06/28 06:35:38;;;;;;;34.43;31.23;;;22.40;99.90;;;;;;5107655;27;20490;-71
2021/06/28 06:38:05;;;;;;;33.90;30.73;;;22.40;99.90;;;;;;5114173;27;21040;-71
2021/06/28 06:40:32;;;;;;;33.53;30.47;;;22.60;99.90;;;;;;5113288;27;20456;-71
2021/06/28 06:42:59;;;;;;;34.17;29.50;;;22.90;99.90;;;;;;5110122;27;20831;-71
2021/06/28 06:45:26;;;;;;;32.87;29.93;;;23.00;99.90;;;;;;5116842;27;20487;-72
2021/06/28 06:47:53;;;;;;;32.70;29.60;;;22.90;99.90;;;;;;5108894;27;20472;-71
2021/06/28 06:50:21;;;;;;;32.33;29.47;;;23.00;99.90;;;;;;5118017;27;20861;-71
2021/06/28 06:52:49;;;;;;;32.67;29.63;;;22.90;99.90;;;;;;5113061;27;20468;-70
2021/06/28 06:55:17;;;;;;;33.50;30.20;;;23.00;99.90;;;;;;5113866;27;20488;-71
2021/06/28 06:57:45;;;;;;;32.83;29.53;;;22.90;99.90;;;;;;5107646;27;20460;-74
2021/06/28 07:00:16;;;;;;;29.97;27.03;;;22.90;99.90;;;;;;5112462;27;20972;-71
2021/06/28 07:02:43;;;;;;;31.43;28.17;;;23.10;99.90;;;;;;5111731;27;20465;-71
2021/06/28 07:05:11;;;;;;;30.47;27.50;;;23.20;99.90;;;;;;5121158;27;20464;-72
2021/06/28 07:07:40;;;;;;;33.37;30.37;;;23.30;99.90;;;;;;5114873;27;20868;-70
2021/06/28 07:10:11;;;;;;;31.60;28.67;;;23.30;99.90;;;;;;5111992;27;20468;-71
2021/06/28 07:12:38;;;;;;;29.67;26.83;;;23.30;99.90;;;;;;5109218;27;20488;-74
2021/06/28 07:15:07;;;;;;;29.97;27.57;;;23.20;99.90;;;;;;5117010;27;20499;-71
2021/06/28 07:17:34;;;;;;;30.13;27.23;;;23.30;99.90;;;;;;5117357;27;20456;-71
2021/06/28 07:20:01;;;;;;;30.07;27.57;;;23.40;99.90;;;;;;5113048;27;20460;-72
2021/06/28 07:22:28;;;;;;;32.00;29.10;;;23.70;99.90;;;;;;5114983;27;20483;-70
2021/06/28 07:24:55;;;;;;;34.17;28.40;;;23.60;99.90;;;;;;5112661;27;20471;-71
2021/06/28 07:27:23;;;;;;;29.33;26.90;;;23.60;99.90;;;;;;5115178;27;20468;-73
2021/06/28 07:29:50;;;;;;;32.63;29.43;;;23.60;99.90;;;;;;5111317;27;20492;-71
2021/06/28 07:32:16;;;;;;;33.77;30.30;;;23.40;99.90;;;;;;5117320;27;20456;-72
2021/06/28 07:34:44;;;;;;;31.37;28.33;;;23.30;99.90;;;;;;5115637;27;20463;-71
2021/06/28 07:37:11;;;;;;;32.77;29.60;;;23.30;99.90;;;;;;5113568;27;20551;-71
2021/06/28 07:39:38;;;;;;;31.83;28.53;;;23.30;99.90;;;;;;5119969;27;20457;-73
2021/06/28 07:42:05;;;;;;;34.70;31.40;;;23.50;99.90;;;;;;5112727;27;20464;-72
2021/06/28 07:44:33;;;;;;;33.23;30.00;;;23.70;99.90;;;;;;5111556;27;20862;-71
2021/06/28 07:47:00;;;;;;;33.70;30.77;;;23.90;99.90;;;;;;5118117;27;20456;-75
2021/06/28 07:49:27;;;;;;;32.80;29.73;;;23.90;99.90;;;;;;5115220;27;20496;-71
2021/06/28 07:51:55;;;;;;;31.00;28.10;;;23.90;99.90;;;;;;5113473;27;20463;-72
2021/06/28 07:54:23;;;;;;;31.53;28.60;;;23.90;99.90;;;;;;5118730;27;20512;-72
2021/06/28 07:56:50;;;;;;;32.00;29.13;;;24.00;99.90;;;;;;5115680;27;20489;-72
2021/06/28 07:59:17;;;;;;;36.20;28.73;;;24.10;99.90;;;;;;5116768;27;20456;-75
2021/06/28 08:01:45;;;;;;;30.50;27.60;;;24.40;99.90;;;;;;5112441;28;20453;-72
2021/06/28 08:04:12;;;;;;;30.97;28.10;;;24.70;99.90;;;;;;5115289;28;20537;-74
2021/06/28 08:06:40;;;;;;;29.17;26.73;;;25.20;99.90;;;;;;5111355;28;20549;-75
2021/06/28 08:09:07;;;;;;;27.93;25.27;;;25.80;99.90;;;;;;5109197;28;21022;-73
2021/06/28 08:11:34;;;;;;;29.73;27.10;;;25.80;99.90;;;;;;5112614;28;21002;-72
2021/06/28 08:14:02;;;;;;;29.73;26.97;;;26.30;99.90;;;;;;5111007;27;20468;-72
2021/06/28 08:16:30;;;;;;;27.83;25.47;;;27.00;99.90;;;;;;5113257;27;20489;-72
2021/06/28 08:18:58;;;;;;;30.00;27.03;;;27.30;99.90;;;;;;5115161;27;20457;-72
2021/06/28 08:21:25;;;;;;;27.17;24.87;;;27.40;99.90;;;;;;5119319;27;20457;-72
2021/06/28 08:23:52;;;;;;;28.07;25.73;;;27.20;99.90;;;;;;5117797;27;20532;-72
2021/06/28 08:26:19;;;;;;;30.80;27.67;;;27.50;99.90;;;;;;5118128;27;20456;-72
2021/06/28 08:28:46;;;;;;;27.37;24.63;;;27.80;99.90;;;;;;5116670;27;20567;-73
2021/06/28 08:31:13;;;;;;;28.07;25.97;;;28.00;99.90;;;;;;5116135;27;20444;-71
2021/06/28 08:33:41;;;;;;;28.33;25.60;;;28.10;99.90;;;;;;5121108;27;20544;-71
2021/06/28 08:36:09;;;;;;;28.83;26.03;;;28.60;99.90;;;;;;5118763;27;20496;-71
2021/06/28 08:38:36;;;;;;;28.17;25.97;;;28.70;99.90;;;;;;5115470;27;20467;-71
2021/06/28 08:41:04;;;;;;;29.60;27.17;;;28.70;99.90;;;;;;5115996;27;20872;-72
2021/06/28 08:43:31;;;;;;;29.27;26.73;;;28.30;99.90;;;;;;5115919;27;20456;-72
2021/06/28 08:45:58;;;;;;;29.73;27.10;;;28.10;99.90;;;;;;5114402;27;20452;-72
2021/06/28 08:48:25;;;;;;;28.40;26.30;;;28.70;99.90;;;;;;5118440;27;20456;-72
2021/06/28 08:50:55;;;;;;;31.23;27.93;;;28.70;99.90;;;;;;5115958;27;20464;-72
2021/06/28 08:53:24;;;;;;;33.73;27.67;;;28.50;99.90;;;;;;5119203;27;20546;-72
2021/06/28 08:55:52;;;;;;;26.57;24.37;;;28.50;99.90;;;;;;5116056;27;21015;-74
2021/06/28 08:58:20;;;;;;;29.23;26.80;;;28.70;99.90;;;;;;5116851;27;20463;-72
2021/06/28 09:00:48;;;;;;;28.70;26.00;;;28.50;99.90;;;;;;5116296;27;20449;-72
2021/06/28 09:03:15;;;;;;;27.43;24.53;;;28.70;99.90;;;;;;5119458;27;21440;-72
2021/06/28 09:05:52;;;;;;;27.70;25.20;;;29.10;99.90;;;;;;5115977;27;20457;-74
2021/06/28 09:08:22;;;;;;;31.20;26.80;;;29.00;99.90;;;;;;5118631;27;20460;-72
2021/06/28 09:10:50;;;;;;;29.47;26.23;;;29.40;99.90;;;;;;5120324;27;20994;-69
2021/06/28 09:13:17;;;;;;;28.37;25.80;;;29.80;99.90;;;;;;5111805;27;20464;-72
2021/06/28 09:15:47;;;;;;;32.30;27.80;;;29.90;99.90;;;;;;5121503;27;20814;-69
2021/06/28 09:18:23;;;;;;;30.77;27.73;;;30.00;99.90;;;;;;5116052;27;20460;-71
2021/06/28 09:20:52;;;;;;;27.30;25.00;;;30.30;99.90;;;;;;5116571;27;20458;-69
2021/06/28 09:23:23;;;;;;;28.20;24.90;;;30.90;99.90;;;;;;5111317;27;20859;-71
2021/06/28 09:25:54;;;;;;;28.53;25.93;;;30.60;99.90;;;;;;5117686;27;20838;-69
2021/06/28 09:28:37;;;;;;;26.53;24.20;;;30.20;99.90;;;;;;5113801;27;20572;-70
2021/06/28 09:31:04;;;;;;;27.53;25.40;;;29.90;99.90;;;;;;5115210;27;20471;-69
2021/06/28 09:33:31;;;;;;;26.87;24.37;;;30.10;99.90;;;;;;5120385;27;20502;-70
2021/06/28 09:35:59;;;;;;;26.50;24.57;;;29.90;99.90;;;;;;5120661;27;20899;-70
2021/06/28 09:38:37;;;;;;;28.40;25.87;;;29.40;99.90;;;;;;5114145;27;20463;-73
2021/06/28 09:41:26;;;;;;;26.53;24.10;;;29.80;99.90;;;;;;5119378;27;20703;-72
2021/06/28 09:43:58;;;;;;;27.03;24.70;;;30.10;99.90;;;;;;5115531;27;20480;-73
2021/06/28 09:46:25;;;;;;;25.60;23.50;;;30.10;99.90;;;;;;5108607;27;20967;-71
2021/06/28 09:48:55;;;;;;;25.30;22.80;;;29.80;99.90;;;;;;5116695;27;20457;-70
2021/06/28 09:51:25;;;;;;;26.53;24.00;;;29.10;99.90;;;;;;5118128;27;20457;-71
2021/06/28 09:53:54;;;;;;;26.83;24.70;;;29.00;99.90;;;;;;5110491;27;20837;-73
2021/06/28 09:56:35;;;;;;;25.60;23.90;;;28.80;99.90;;;;;;5115585;27;20495;-72
2021/06/28 09:59:25;;;;;;;24.53;22.87;;;28.80;99.90;;;;;;5114384;27;20471;-71
2021/06/28 10:02:09;;;;;;;24.00;22.20;;;28.30;99.90;;;;;;5109982;27;20568;-71
2021/06/28 10:04:41;;;;;;;24.83;23.00;;;28.10;99.90;;;;;;5116448;27;20997;-73
2021/06/28 10:07:23;;;;;;;25.10;22.97;;;27.60;99.90;;;;;;5117239;27;20461;-71
2021/06/28 10:10:14;;;;;;;25.70;23.63;;;27.20;99.90;;;;;;5116277;27;20459;-72
2021/06/28 10:12:45;;;;;;;32.70;30.03;;;27.00;99.90;;;;;;5119983;27;20479;-69
2021/06/28 10:15:14;;;;;;;34.30;31.60;;;26.50;99.90;;;;;;5120447;27;20456;-68
2021/06/28 10:17:42;;;;;;;36.67;33.77;;;25.90;99.90;;;;;;5115089;27;21016;-71
2021/06/28 10:20:11;;;;;;;38.13;34.93;;;25.70;99.90;;;;;;5115436;27;20974;-71
2021/06/28 10:22:39;;;;;;;40.83;36.40;;;25.60;99.90;;;;;;5115025;27;21062;-69
2021/06/28 10:25:09;;;;;;;41.90;38.40;;;25.30;99.90;;;;;;5121046;27;20488;-70
2021/06/28 10:27:36;;;;;;;42.20;38.20;;;25.00;99.90;;;;;;5120075;27;20456;-70
2021/06/28 10:30:08;;;;;;;41.13;36.07;;;24.80;99.90;;;;;;5118967;27;20452;-71
2021/06/28 10:32:37;;;;;;;37.70;34.70;;;25.10;99.90;;;;;;5116395;27;21015;-70
2021/06/28 10:35:06;;;;;;;40.03;36.43;;;25.30;99.90;;;;;;5112063;27;20495;-72
2021/06/28 10:37:35;;;;;;;37.83;34.60;;;25.60;99.90;;;;;;5115596;27;20488;-69
2021/06/28 10:40:06;;;;;;;37.10;33.90;;;25.70;99.90;;;;;;5111237;27;20461;-71
2021/06/28 10:42:34;;;;;;;32.57;29.87;;;25.90;99.90;;;;;;5112101;27;20464;-71
2021/06/28 10:45:02;;;;;;;28.73;26.53;;;26.00;99.90;;;;;;5111636;27;20453;-70
2021/06/28 10:47:30;;;;;;;25.87;23.77;;;26.10;99.90;;;;;;5113686;27;20453;-73
2021/06/28 10:49:58;;;;;;;24.97;22.77;;;26.20;99.90;;;;;;5118039;27;20963;-70
2021/06/28 10:52:48;;;;;;;23.87;21.97;;;27.00;99.90;;;;;;5110781;27;20591;-70
2021/06/28 10:55:38;;;;;;;22.40;20.83;;;27.70;99.90;;;;;;5113053;27;20489;-70
2021/06/28 10:58:24;;;;;;;22.00;20.60;;;28.50;99.90;;;;;;5112869;27;20819;-70
2021/06/28 11:00:53;;;;;;;21.43;20.00;;;29.50;99.90;;;;;;5109263;27;20540;-69
2021/06/28 11:03:34;;;;;;;20.10;18.50;;;29.90;99.90;;;;;;5113323;27;20456;-70
2021/06/28 11:06:16;;;;;;;19.23;18.13;;;30.80;99.90;;;;;;5112499;27;20556;-70
2021/06/28 11:09:00;;;;;;;21.07;19.43;;;31.30;99.90;;;;;;5112017;27;20451;-73
2021/06/28 11:11:58;;;;;;;21.43;19.73;;;31.60;99.90;;;;;;5113340;27;20472;-72
2021/06/28 11:14:50;;;;;;;19.50;18.30;;;32.80;99.90;;;;;;5113127;27;20576;-71
2021/06/28 11:17:20;;;;;;;19.70;18.50;;;33.50;99.90;;;;;;5113855;27;21037;-71
2021/06/28 11:20:05;;;;;;;17.50;16.30;;;34.10;99.90;;;;;;5115790;27;20466;-75
2021/06/28 11:22:54;;;;;;;20.00;18.70;;;34.30;99.90;;;;;;5117080;27;20571;-71
2021/06/28 11:25:27;;;;;;;18.70;17.37;;;34.00;99.90;;;;;;5114801;27;20456;-76
2021/06/28 11:28:14;;;;;;;18.17;17.17;;;34.40;99.90;;;;;;5118653;27;21092;-71
2021/06/28 11:30:55;;;;;;;17.53;16.43;;;34.30;99.90;;;;;;5117741;27;20564;-71
2021/06/28 11:33:43;;;;;;;20.17;18.83;;;34.40;99.90;;;;;;5116289;27;20984;-71
2021/06/28 11:36:31;;;;;;;19.90;18.60;;;34.50;99.90;;;;;;5115640;27;20480;-71
2021/06/28 11:39:00;;;;;;;19.63;18.57;;;34.30;99.90;;;;;;5115994;27;20461;-73
2021/06/28 11:41:28;;;;;;;18.40;17.20;;;35.00;98.70;;;;;;5118533;27;20455;-73
2021/06/28 11:43:57;;;;;;;18.33;17.13;;;35.20;98.70;;;;;;5111663;27;20819;-71
2021/06/28 11:46:39;;;;;;;19.07;18.07;;;35.80;98.70;;;;;;5119303;27;20955;-71
2021/06/28 11:49:07;;;;;;;18.30;17.30;;;35.90;98.50;;;;;;5115768;27;20957;-71
2021/06/28 11:51:37;;;;;;;20.43;19.00;;;36.00;97.30;;;;;;5110603;27;20520;-73
2021/06/28 11:54:06;;;;;;;20.50;19.10;;;36.70;96.70;;;;;;5113858;27;20460;-69
2021/06/28 11:56:36;;;;;;;19.20;17.73;;;36.30;96.30;;;;;;5110684;27;20489;-71
2021/06/28 11:59:05;;;;;;;18.40;17.30;;;36.40;96.90;;;;;;5115765;27;20551;-72
2021/06/28 12:01:34;;;;;;;17.60;16.60;;;35.30;97.10;;;;;;5119484;27;20460;-70
2021/06/28 12:04:02;;;;;;;20.33;18.73;;;35.70;96.60;;;;;;5120984;28;20451;-71
2021/06/28 12:06:33;;;;;;;19.50;18.40;;;35.50;97.20;;;;;;5114934;28;20460;-72
2021/06/28 12:09:07;;;;;;;19.93;18.63;;;35.70;96.90;;;;;;5110812;28;20469;-74
2021/06/28 12:11:35;;;;;;;21.00;19.70;;;35.10;98.00;;;;;;5113731;28;20474;-72
2021/06/28 12:14:02;;;;;;;18.03;17.03;;;34.20;98.90;;;;;;5116645;28;20460;-72
2021/06/28 12:16:29;;;;;;;18.53;17.33;;;34.20;96.70;;;;;;5112760;28;20483;-73
2021/06/28 12:19:08;;;;;;;18.37;16.80;;;34.10;97.50;;;;;;5111058;28;20457;-72
2021/06/28 12:21:37;;;;;;;17.20;16.30;;;34.70;95.60;;;;;;5113861;28;20467;-74
2021/06/28 12:24:12;;;;;;;18.40;16.53;;;35.10;95.20;;;;;;5111769;28;20966;-73
2021/06/28 12:26:40;;;;;;;18.60;17.40;;;34.80;95.90;;;;;;5114049;28;20474;-71
2021/06/28 12:29:27;;;;;;;20.20;18.73;;;34.40;95.30;;;;;;5107406;28;20803;-73
2021/06/28 12:32:13;;;;;;;19.40;18.30;;;33.30;96.20;;;;;;5109318;28;20475;-71
2021/06/28 12:34:41;;;;;;;18.17;17.20;;;32.50;97.60;;;;;;5120826;28;20464;-71
2021/06/28 12:37:08;;;;;;;19.40;18.10;;;32.40;98.10;;;;;;5108567;28;20495;-73
2021/06/28 12:39:37;;;;;;;18.03;16.80;;;32.10;98.70;;;;;;5109836;28;20460;-71